Time;durP1;ratioP1;P1;durP2;ratioP2;P2;SDS_P1;SDS_P2;PMS_P1;PMS_P2;Temp;Humidity;BMP_temperature;BMP_pressure;BME280_temperature;BME280_humidity;BME280_pressure;Samples;Min_cycle;Max_cycle;Signal;HPM_P1;HPM_P2
2023/09/04 00:00:27;;;;;;;3.60;1.05;;;;;;;17.11;100.00;101586.00;5053216;28;20752;-68
2023/09/04 00:02:54;;;;;;;2.03;0.90;;;;;;;17.16;100.00;101580.50;5057131;28;20052;-69
2023/09/04 00:05:21;;;;;;;2.97;1.10;;;;;;;16.95;100.00;101590.38;5069268;28;20489;-68
2023/09/04 00:07:47;;;;;;;4.38;1.30;;;;;;;16.68;100.00;101590.81;5053239;28;20041;-69
2023/09/04 00:10:14;;;;;;;3.83;1.27;;;;;;;16.73;100.00;101594.06;5052887;28;20045;-68
2023/09/04 00:12:41;;;;;;;3.28;1.08;;;;;;;16.47;100.00;101593.56;5069890;28;20045;-68
2023/09/04 00:15:08;;;;;;;3.33;1.20;;;;;;;16.26;100.00;101597.25;5069521;28;20054;-68
2023/09/04 00:17:34;;;;;;;3.50;1.30;;;;;;;16.17;100.00;101603.81;5069947;28;20048;-68
2023/09/04 00:20:02;;;;;;;3.88;1.20;;;;;;;16.10;100.00;101587.41;5077840;28;20133;-68
2023/09/04 00:22:30;;;;;;;5.35;1.40;;;;;;;15.91;100.00;101591.84;5068932;28;20056;-69
2023/09/04 00:24:56;;;;;;;3.75;1.30;;;;;;;16.07;100.00;101590.19;5068523;28;20044;-68
2023/09/04 00:27:23;;;;;;;5.57;1.30;;;;;;;16.00;100.00;101583.47;5059685;28;20044;-69
2023/09/04 00:29:50;;;;;;;4.10;1.38;;;;;;;16.14;100.00;101602.16;5065751;28;20076;-68
2023/09/04 00:32:16;;;;;;;4.47;1.20;;;;;;;15.91;100.00;101595.31;5064797;28;20044;-68
2023/09/04 00:34:43;;;;;;;5.70;1.52;;;;;;;15.90;100.00;101601.56;5069260;28;20139;-68
2023/09/04 00:37:10;;;;;;;3.90;1.25;;;;;;;16.12;100.00;101601.38;5068240;28;20050;-68
2023/09/04 00:39:37;;;;;;;4.15;1.42;;;;;;;15.86;100.00;101596.47;5068251;28;20048;-68
2023/09/04 00:42:04;;;;;;;4.50;1.30;;;;;;;15.69;100.00;101598.06;5065872;28;20048;-68
2023/09/04 00:44:31;;;;;;;3.92;1.20;;;;;;;15.77;100.00;101599.53;5055040;28;20063;-68
2023/09/04 00:46:59;;;;;;;3.75;1.17;;;;;;;15.87;100.00;101574.44;5062722;28;20045;-68
2023/09/04 00:49:27;;;;;;;2.33;1.00;;;;;;;16.17;100.00;101597.69;5067463;28;20049;-68
2023/09/04 00:51:55;;;;;;;3.55;1.20;;;;;;;16.29;100.00;101603.25;5066626;28;20052;-68
2023/09/04 00:54:23;;;;;;;2.65;1.30;;;;;;;16.29;100.00;101605.88;5065695;28;20068;-69
2023/09/04 00:56:51;;;;;;;3.33;1.02;;;;;;;16.37;100.00;101589.66;5070000;28;20055;-68
2023/09/04 00:59:18;;;;;;;3.42;1.27;;;;;;;16.44;100.00;101579.66;5067915;28;20515;-69
2023/09/04 01:01:45;;;;;;;2.80;1.20;;;;;;;16.49;100.00;101577.63;5068520;28;20496;-69
2023/09/04 01:04:12;;;;;;;3.22;1.20;;;;;;;16.47;100.00;101579.50;5055692;28;20470;-68
2023/09/04 01:06:39;;;;;;;3.10;1.17;;;;;;;16.37;100.00;101575.59;5068755;28;20048;-69
2023/09/04 01:09:08;;;;;;;3.42;1.20;;;;;;;16.19;100.00;101583.47;5069970;28;20128;-69
2023/09/04 01:12:01;;;;;;;4.18;1.20;;;;;;;16.16;100.00;101590.69;5062483;28;20071;-69
2023/09/04 01:14:29;;;;;;;2.45;1.00;;;;;;;16.14;100.00;101586.31;5060376;28;20052;-69
2023/09/04 01:16:57;;;;;;;3.05;1.10;;;;;;;16.13;100.00;101554.72;5058658;28;20045;-69
2023/09/04 01:19:25;;;;;;;3.85;1.20;;;;;;;16.39;100.00;101574.56;5069062;28;20451;-69
2023/09/04 01:21:51;;;;;;;2.67;1.05;;;;;;;16.25;100.00;101561.19;5063700;28;20056;-69
2023/09/04 01:24:18;;;;;;;3.83;0.98;;;;;;;16.28;100.00;101561.88;5068362;28;20056;-69
2023/09/04 01:27:03;;;;;;;3.00;1.00;;;;;;;16.34;100.00;101563.38;5057476;28;20060;-69
2023/09/04 01:29:39;;;;;;;2.40;1.08;;;;;;;16.20;100.00;101560.53;5069432;28;20535;-69
2023/09/04 01:32:26;;;;;;;2.70;1.10;;;;;;;16.19;100.00;101543.84;5068679;28;20055;-69
2023/09/04 01:34:56;;;;;;;3.40;1.00;;;;;;;16.01;100.00;101523.59;5051410;28;20057;-69
2023/09/04 01:37:24;;;;;;;3.45;1.20;;;;;;;16.03;100.00;101530.50;5069665;28;20058;-69
2023/09/04 01:39:52;;;;;;;4.20;1.20;;;;;;;15.70;100.00;101530.28;5069841;28;20473;-69
2023/09/04 01:42:19;;;;;;;2.70;1.10;;;;;;;15.57;100.00;101528.22;5067031;28;20063;-69
2023/09/04 01:44:46;;;;;;;2.13;1.13;;;;;;;15.53;100.00;101526.66;5069484;28;20052;-69
2023/09/04 01:47:12;;;;;;;2.42;1.00;;;;;;;15.40;100.00;101514.91;5069020;28;20126;-69
2023/09/04 01:49:39;;;;;;;3.25;1.20;;;;;;;15.51;100.00;101522.34;5058176;28;20049;-69
2023/09/04 01:52:06;;;;;;;5.50;1.20;;;;;;;15.79;100.00;101515.81;5064425;28;20057;-68
2023/09/04 01:54:32;;;;;;;2.80;1.15;;;;;;;15.71;100.00;101508.25;5068018;28;20052;-68
2023/09/04 01:56:59;;;;;;;3.10;1.13;;;;;;;15.48;100.00;101501.41;5067852;28;20382;-68
2023/09/04 01:59:26;;;;;;;3.70;1.30;;;;;;;15.08;100.00;101509.31;5069244;28;20516;-69
2023/09/04 02:01:52;;;;;;;3.58;1.20;;;;;;;15.02;100.00;101511.38;5068092;28;20063;-68
2023/09/04 02:04:19;;;;;;;3.67;1.20;;;;;;;14.96;100.00;101513.34;5068446;28;20053;-68
2023/09/04 02:06:46;;;;;;;3.80;1.10;;;;;;;15.13;100.00;101517.88;5069292;28;20387;-68
2023/09/04 02:09:13;;;;;;;4.13;1.30;;;;;;;15.11;100.00;101514.44;5069049;28;20455;-68
2023/09/04 02:11:39;;;;;;;4.30;1.10;;;;;;;15.03;100.00;101511.28;5070168;28;20052;-69
2023/09/04 02:14:06;;;;;;;4.32;1.17;;;;;;;15.27;100.00;101503.22;5072349;28;20523;-68
2023/09/04 02:16:33;;;;;;;3.65;1.33;;;;;;;15.06;100.00;101497.13;5072028;28;20044;-68
2023/09/04 02:18:59;;;;;;;6.43;1.35;;;;;;;14.66;100.00;101502.34;5070525;28;20044;-68
2023/09/04 02:21:26;;;;;;;3.90;1.15;;;;;;;14.57;100.00;101493.03;5071541;28;20051;-68
2023/09/04 02:23:53;;;;;;;4.45;1.40;;;;;;;14.66;100.00;101494.44;5072277;28;20585;-68
2023/09/04 02:26:19;;;;;;;3.97;1.40;;;;;;;14.54;100.00;101495.78;5071677;28;20052;-68
2023/09/04 02:28:46;;;;;;;3.22;1.20;;;;;;;14.42;100.00;101491.88;5088162;28;20056;-68
2023/09/04 02:31:13;;;;;;;3.42;1.10;;;;;;;14.29;100.00;101492.44;5072204;28;20499;-68
2023/09/04 02:33:39;;;;;;;5.28;1.38;;;;;;;14.22;100.00;101497.97;5072062;28;20053;-69
2023/09/04 02:36:06;;;;;;;5.63;1.30;;;;;;;14.05;100.00;101501.28;5072511;28;20044;-68
2023/09/04 02:38:33;;;;;;;4.88;1.20;;;;;;;13.83;100.00;101498.66;5071865;28;20569;-68
2023/09/04 02:41:00;;;;;;;5.32;1.80;;;;;;;13.65;100.00;101491.44;5070958;28;20074;-68
2023/09/04 02:43:26;;;;;;;4.30;1.35;;;;;;;13.61;100.00;101492.50;5071948;28;20055;-68
2023/09/04 02:45:53;;;;;;;4.47;1.50;;;;;;;13.45;100.00;101493.06;5071873;28;20048;-68
2023/09/04 02:48:20;;;;;;;5.30;1.40;;;;;;;13.28;100.00;101485.78;5072125;28;20064;-69
2023/09/04 02:50:47;;;;;;;5.13;1.30;;;;;;;13.26;100.00;101482.34;5072230;28;20564;-69
2023/09/04 02:53:14;;;;;;;3.92;1.60;;;;;;;13.22;100.00;101482.50;5071912;28;20049;-69
2023/09/04 02:55:47;;;;;;;5.63;1.50;;;;;;;13.57;100.00;101483.00;5071350;28;20052;-68
2023/09/04 02:58:14;;;;;;;5.00;1.58;;;;;;;13.58;100.00;101487.34;5071792;28;20049;-69
2023/09/04 03:00:41;;;;;;;5.60;1.25;;;;;;;13.80;100.00;101474.22;5070242;28;20500;-69
2023/09/04 03:03:07;;;;;;;3.40;1.20;;;;;;;14.22;100.00;101490.06;5071197;28;20040;-68
2023/09/04 03:05:34;;;;;;;2.95;1.20;;;;;;;13.79;100.00;101493.53;5071945;28;20049;-69
2023/09/04 03:08:01;;;;;;;4.75;1.45;;;;;;;13.58;100.00;101505.75;5071983;28;20063;-68
2023/09/04 03:10:30;;;;;;;4.30;1.20;;;;;;;13.67;100.00;101495.75;5071094;28;20045;-68
2023/09/04 03:12:56;;;;;;;3.17;1.35;;;;;;;13.43;100.00;101496.69;5071624;28;20052;-68
2023/09/04 03:15:23;;;;;;;4.78;1.20;;;;;;;13.17;100.00;101492.34;5070198;28;20507;-69
2023/09/04 03:17:50;;;;;;;3.70;1.40;;;;;;;13.11;100.00;101509.19;5071093;28;20075;-68
2023/09/04 03:20:19;;;;;;;2.92;1.20;;;;;;;13.32;100.00;101504.97;5065459;28;20074;-69
2023/09/04 03:22:46;;;;;;;4.45;1.52;;;;;;;13.66;100.00;101496.66;5071009;28;20106;-69
2023/09/04 03:25:13;;;;;;;3.10;1.25;;;;;;;13.85;100.00;101494.16;5071100;28;20131;-69
2023/09/04 03:27:40;;;;;;;4.40;1.27;;;;;;;13.85;100.00;101495.97;5070738;28;20060;-69
2023/09/04 03:30:07;;;;;;;5.15;1.40;;;;;;;13.45;100.00;101461.50;5069915;28;20063;-69
2023/09/04 03:32:34;;;;;;;5.32;1.50;;;;;;;13.75;100.00;101510.38;5069546;28;20068;-68
2023/09/04 03:35:00;;;;;;;3.72;1.27;;;;;;;13.62;100.00;101496.84;5071504;28;20102;-68
2023/09/04 03:37:27;;;;;;;3.83;1.38;;;;;;;13.85;100.00;101496.81;5070349;28;20081;-68
2023/09/04 03:39:54;;;;;;;3.17;1.02;;;;;;;14.08;100.00;101481.00;5071476;28;20052;-69
2023/09/04 03:42:20;;;;;;;3.30;1.25;;;;;;;14.10;100.00;101487.09;5070191;28;20048;-69
2023/09/04 03:44:47;;;;;;;2.75;1.20;;;;;;;14.23;100.00;101483.03;5071114;28;20052;-69
2023/09/04 03:47:13;;;;;;;2.35;1.20;;;;;;;14.44;100.00;101466.31;5071337;28;20398;-69
2023/09/04 03:49:40;;;;;;;2.80;1.20;;;;;;;14.54;100.00;101474.69;5062695;28;20053;-69
2023/09/04 03:52:07;;;;;;;3.33;1.30;;;;;;;14.14;100.00;101463.19;5069800;28;20503;-69
2023/09/04 03:54:33;;;;;;;3.55;1.35;;;;;;;14.20;100.00;101465.56;5070485;28;20096;-68
2023/09/04 03:57:00;;;;;;;3.42;1.20;;;;;;;14.18;100.00;101466.53;5068990;28;20481;-68
2023/09/04 03:59:27;;;;;;;3.53;1.13;;;;;;;13.92;100.00;101476.38;5070452;28;20048;-69
2023/09/04 04:01:53;;;;;;;5.50;1.25;;;;;;;13.98;100.00;101464.72;5070211;28;20048;-69
2023/09/04 04:04:20;;;;;;;4.65;1.40;;;;;;;13.77;100.00;101469.91;5070877;28;20044;-69
2023/09/04 04:06:46;;;;;;;3.38;1.20;;;;;;;13.65;100.00;101459.88;5070422;28;20044;-69
2023/09/04 04:09:15;;;;;;;3.65;1.30;;;;;;;13.66;100.00;101472.13;5071056;28;20379;-69
2023/09/04 04:11:43;;;;;;;3.13;1.13;;;;;;;14.03;100.00;101463.63;5070472;28;20411;-68
2023/09/04 04:14:10;;;;;;;5.00;1.20;;;;;;;14.29;100.00;101464.34;5070312;28;20478;-68
2023/09/04 04:16:36;;;;;;;5.05;1.50;;;;;;;14.14;100.00;101468.44;5070453;28;20526;-68
2023/09/04 04:19:04;;;;;;;2.60;1.00;;;;;;;14.13;100.00;101469.38;5070194;28;20105;-68
2023/09/04 04:21:32;;;;;;;3.42;1.45;;;;;;;14.03;100.00;101463.63;5069073;28;20482;-68
2023/09/04 04:23:59;;;;;;;5.22;1.52;;;;;;;13.97;100.00;101455.97;5067842;28;20410;-69
2023/09/04 04:26:26;;;;;;;3.97;1.33;;;;;;;13.83;100.00;101447.78;5069953;28;20055;-69
2023/09/04 04:28:52;;;;;;;2.65;1.60;;;;;;;14.07;100.00;101456.44;5070365;28;20056;-69
2023/09/04 04:31:21;;;;;;;3.03;1.30;;;;;;;14.11;100.00;101455.44;5070385;28;20532;-69
2023/09/04 04:33:48;;;;;;;3.80;1.38;;;;;;;14.18;100.00;101445.47;5069744;28;20135;-69
2023/09/04 04:36:15;;;;;;;3.60;1.50;;;;;;;14.21;100.00;101446.19;5070005;28;20051;-69
2023/09/04 04:38:42;;;;;;;5.82;1.67;;;;;;;14.09;100.00;101451.97;5070981;28;20052;-69
2023/09/04 04:41:08;;;;;;;3.88;1.48;;;;;;;14.39;100.00;101441.94;5070010;28;20052;-69
2023/09/04 04:43:36;;;;;;;3.42;1.30;;;;;;;14.51;100.00;101440.56;5070541;28;20048;-68
2023/09/04 04:46:02;;;;;;;2.85;1.17;;;;;;;14.49;100.00;101431.88;5070141;28;20060;-68
2023/09/04 04:48:29;;;;;;;3.65;1.35;;;;;;;14.72;100.00;101440.59;5070240;28;20578;-67
2023/09/04 04:50:56;;;;;;;3.88;1.38;;;;;;;14.76;100.00;101455.34;5068785;28;20503;-68
2023/09/04 04:53:23;;;;;;;3.75;1.30;;;;;;;14.82;100.00;101434.00;5069605;28;20501;-67
2023/09/04 04:55:49;;;;;;;5.45;1.33;;;;;;;14.81;100.00;101443.69;5069810;28;20052;-68
2023/09/04 04:58:16;;;;;;;4.82;1.38;;;;;;;14.75;100.00;101432.53;5070645;28;20049;-68
2023/09/04 05:00:43;;;;;;;3.53;1.10;;;;;;;14.78;100.00;101433.28;5068948;28;20048;-67
2023/09/04 05:03:10;;;;;;;3.22;1.10;;;;;;;14.81;100.00;101443.69;5069411;28;20432;-68
2023/09/04 05:05:37;;;;;;;4.20;1.45;;;;;;;14.58;100.00;101436.78;5069489;28;20087;-68
2023/09/04 05:08:03;;;;;;;4.85;1.50;;;;;;;14.38;100.00;101449.94;5068437;28;20048;-69
2023/09/04 05:10:30;;;;;;;5.90;1.50;;;;;;;14.37;100.00;101442.94;5067100;28;20493;-68
2023/09/04 05:12:57;;;;;;;4.78;1.25;;;;;;;14.27;100.00;101431.94;5069575;28;20048;-67
2023/09/04 05:15:23;;;;;;;2.88;1.02;;;;;;;14.12;100.00;101437.84;5069192;28;20067;-68
2023/09/04 05:17:50;;;;;;;3.03;1.17;;;;;;;13.76;100.00;101438.41;5068199;28;20110;-68
2023/09/04 05:20:17;;;;;;;3.55;1.33;;;;;;;13.77;100.00;101440.97;5067109;28;20135;-69
2023/09/04 05:22:44;;;;;;;3.58;1.27;;;;;;;13.79;100.00;101444.41;5061478;28;20048;-69
2023/09/04 05:25:11;;;;;;;2.90;1.13;;;;;;;13.77;100.00;101443.59;5064464;28;20051;-69
2023/09/04 05:27:38;;;;;;;3.92;1.45;;;;;;;13.72;100.00;101423.66;5063033;28;20041;-68
2023/09/04 05:30:05;;;;;;;2.53;1.20;;;;;;;13.83;100.00;101435.47;5084213;28;20064;-69
2023/09/04 05:32:32;;;;;;;3.90;1.45;;;;;;;13.98;100.00;101435.78;5068005;28;20048;-68
2023/09/04 05:34:59;;;;;;;3.15;1.20;;;;;;;13.90;100.00;101427.31;5084274;28;20432;-68
2023/09/04 05:37:25;;;;;;;4.47;1.33;;;;;;;13.86;100.00;101429.22;5068656;28;20067;-68
2023/09/04 05:39:53;;;;;;;4.60;1.35;;;;;;;13.70;100.00;101428.13;5069038;28;20114;-68
2023/09/04 05:42:20;;;;;;;4.45;1.25;;;;;;;13.90;100.00;101420.28;5052477;28;20045;-68
2023/09/04 05:44:47;;;;;;;5.03;1.35;;;;;;;14.48;100.00;101427.50;5049327;28;20064;-69
2023/09/04 05:47:13;;;;;;;2.47;1.13;;;;;;;14.74;100.00;101426.41;5056000;28;20499;-69
2023/09/04 05:49:40;;;;;;;5.82;1.60;;;;;;;14.80;100.00;101430.56;5064480;28;20056;-69
2023/09/04 05:52:07;;;;;;;4.28;1.38;;;;;;;15.00;100.00;101425.25;5063415;28;20044;-69
2023/09/04 05:54:33;;;;;;;6.47;1.63;;;;;;;15.12;100.00;101430.91;5058476;28;20103;-68
2023/09/04 05:57:00;;;;;;;6.35;1.52;;;;;;;15.22;100.00;101437.47;5061983;28;20494;-69
2023/09/04 05:59:27;;;;;;;4.57;1.50;;;;;;;15.13;100.00;101403.59;5070284;28;20059;-69
2023/09/04 06:01:53;;;;;;;4.22;1.52;;;;;;;15.33;100.00;101429.06;5060658;28;20059;-67
2023/09/04 06:04:20;;;;;;;4.72;1.45;;;;;;;15.38;100.00;101417.34;5065208;28;20057;-69
2023/09/04 06:06:50;;;;;;;6.25;1.70;;;;;;;15.26;100.00;101428.47;5052185;28;20366;-69
2023/09/04 06:09:17;;;;;;;6.90;1.98;;;;;;;15.37;100.00;101425.38;5067708;28;20055;-68
2023/09/04 06:11:44;;;;;;;4.13;1.42;;;;;;;15.35;100.00;101406.97;5057816;28;20062;-68
2023/09/04 06:14:11;;;;;;;3.55;1.40;;;;;;;15.37;100.00;101414.81;5058222;28;20063;-68
2023/09/04 06:16:37;;;;;;;4.75;1.60;;;;;;;15.53;100.00;101410.50;5057760;28;20070;-69
2023/09/04 06:19:04;;;;;;;4.95;1.52;;;;;;;15.68;100.00;101416.84;5066410;28;20086;-68
2023/09/04 06:21:31;;;;;;;4.43;1.50;;;;;;;15.82;100.00;101432.03;5066282;28;20052;-67
2023/09/04 06:23:57;;;;;;;5.75;1.83;;;;;;;15.27;100.00;101426.72;5061119;28;20055;-68
2023/09/04 06:26:26;;;;;;;4.70;1.60;;;;;;;15.34;100.00;101433.41;5059350;28;20045;-68
2023/09/04 06:28:52;;;;;;;7.75;1.58;;;;;;;15.51;100.00;101425.56;5069793;28;20553;-68
2023/09/04 06:31:20;;;;;;;5.35;1.60;;;;;;;15.54;100.00;101420.13;5068404;28;20048;-67
2023/09/04 06:33:47;;;;;;;4.10;1.58;;;;;;;15.59;100.00;101421.72;5054735;28;20060;-67
2023/09/04 06:36:14;;;;;;;4.53;1.52;;;;;;;15.69;100.00;101408.00;5055908;28;20052;-68
2023/09/04 06:38:41;;;;;;;6.75;1.50;;;;;;;15.75;100.00;101415.63;5053703;28;20490;-68
2023/09/04 06:41:07;;;;;;;3.75;1.30;;;;;;;15.73;100.00;101398.97;5059341;28;20471;-68
2023/09/04 06:43:34;;;;;;;6.43;1.83;;;;;;;15.52;100.00;101385.03;5069293;28;20057;-69
2023/09/04 06:46:02;;;;;;;4.88;1.52;;;;;;;15.42;100.00;101404.88;5063416;28;20051;-68
2023/09/04 06:48:29;;;;;;;10.15;1.58;;;;;;;14.97;100.00;101401.66;5054900;28;20049;-69
2023/09/04 06:50:56;;;;;;;4.85;1.52;;;;;;;14.75;100.00;101407.06;5060921;28;20044;-69
2023/09/04 06:53:23;;;;;;;4.63;1.63;;;;;;;14.60;100.00;101386.66;5068062;28;20048;-69
2023/09/04 06:55:50;;;;;;;5.03;1.60;;;;;;;15.27;100.00;101393.28;5063187;28;20047;-68
2023/09/04 06:58:16;;;;;;;5.00;1.50;;;;;;;16.59;100.00;101416.75;5052790;28;20058;-68
2023/09/04 07:00:43;;;;;;;4.95;1.80;;;;;;;17.30;100.00;101410.38;5063446;28;20478;-68
2023/09/04 07:03:10;;;;;;;2.90;1.20;;;;;;;17.86;100.00;101416.09;5059451;28;20071;-68
2023/09/04 07:05:36;;;;;;;4.88;1.65;;;;;;;18.41;100.00;101420.81;5065571;28;20052;-68
2023/09/04 07:08:06;;;;;;;7.95;3.90;;;;;;;19.21;100.00;101423.06;5058300;28;20140;-68
2023/09/04 07:10:33;;;;;;;8.88;2.17;;;;;;;19.39;100.00;101415.72;5065479;28;20076;-69
2023/09/04 07:13:01;;;;;;;4.03;1.42;;;;;;;19.12;100.00;101413.84;5070247;28;20623;-68
2023/09/04 07:15:28;;;;;;;4.20;1.38;;;;;;;19.23;100.00;101408.75;5071212;28;20409;-68
2023/09/04 07:17:57;;;;;;;4.70;1.30;;;;;;;20.10;100.00;101414.66;5068414;28;20070;-68
2023/09/04 07:20:23;;;;;;;4.95;1.40;;;;;;;20.07;100.00;101402.41;5059504;28;20060;-68
2023/09/04 07:22:50;;;;;;;5.30;1.30;;;;;;;20.63;100.00;101404.84;5072320;28;20591;-69
2023/09/04 07:25:17;;;;;;;5.65;1.50;;;;;;;20.68;100.00;101399.19;5066101;28;20446;-69
2023/09/04 07:27:47;;;;;;;4.00;1.30;;;;;;;20.52;100.00;101412.66;5072990;28;20049;-69
2023/09/04 07:30:13;;;;;;;5.18;1.70;;;;;;;20.61;100.00;101401.44;5068321;28;20040;-69
2023/09/04 07:32:40;;;;;;;3.88;1.20;;;;;;;21.00;100.00;101402.25;5063016;28;20056;-69
2023/09/04 07:35:08;;;;;;;4.18;1.20;;;;;;;21.33;100.00;101399.94;5068295;28;20059;-69
2023/09/04 07:37:35;;;;;;;4.63;1.20;;;;;;;21.73;100.00;101407.72;5072014;28;20051;-68
2023/09/04 07:40:04;;;;;;;2.95;1.10;;;;;;;22.30;100.00;101400.78;5071836;28;20067;-68
2023/09/04 07:42:31;;;;;;;6.57;1.48;;;;;;;21.87;100.00;101398.66;5063848;28;20049;-69
2023/09/04 07:44:58;;;;;;;6.13;1.27;;;;;;;21.72;100.00;101401.50;5064781;28;20482;-69
2023/09/04 07:47:25;;;;;;;5.30;1.48;;;;;;;21.87;100.00;101414.66;5070719;28;20087;-68
2023/09/04 07:49:53;;;;;;;4.53;1.40;;;;;;;22.22;100.00;101404.00;5071178;28;20102;-68
2023/09/04 07:52:21;;;;;;;5.15;1.58;;;;;;;21.87;100.00;101412.88;5070291;28;20501;-68
2023/09/04 07:54:49;;;;;;;5.07;1.40;;;;;;;21.67;100.00;101411.66;5060176;28;20131;-68
2023/09/04 07:57:16;;;;;;;5.07;1.50;;;;;;;22.31;100.00;101415.81;5068734;28;20048;-68
2023/09/04 07:59:43;;;;;;;5.80;1.40;;;;;;;21.85;100.00;101411.25;5071561;28;20391;-68
2023/09/04 08:02:09;;;;;;;4.88;1.52;;;;;;;21.98;100.00;101398.72;5070613;28;20769;-69
2023/09/04 08:04:40;;;;;;;7.05;1.30;;;;;;;22.39;100.00;101405.41;5063388;28;20060;-68
2023/09/04 08:07:06;;;;;;;4.72;1.27;;;;;;;22.16;100.00;101410.66;5066101;28;20092;-69
2023/09/04 08:09:33;;;;;;;4.78;1.40;;;;;;;22.18;100.00;101392.72;5070944;28;20051;-69
2023/09/04 08:12:00;;;;;;;6.75;1.30;;;;;;;22.82;100.00;101398.53;5070661;28;20048;-68
2023/09/04 08:14:30;;;;;;;4.88;1.20;;;;;;;23.23;100.00;101391.72;5069955;28;20051;-68
2023/09/04 08:16:57;;;;;;;4.63;1.27;;;;;;;23.33;100.00;101392.69;5070709;28;20070;-68
2023/09/04 08:19:24;;;;;;;4.25;1.20;;;;;;;23.44;100.00;101370.44;5070406;28;20053;-69
2023/09/04 08:21:51;;;;;;;3.10;1.10;;;;;;;23.59;100.00;101389.72;5069045;28;20053;-68
2023/09/04 08:24:17;;;;;;;3.72;1.10;;;;;;;23.76;100.00;101385.63;5070145;28;20052;-68
2023/09/04 08:26:44;;;;;;;4.20;0.98;;;;;;;24.07;100.00;101384.78;5070804;28;20056;-68
2023/09/04 08:29:11;;;;;;;2.58;1.10;;;;;;;24.37;100.00;101396.53;5056878;28;20482;-69
2023/09/04 08:31:37;;;;;;;4.43;1.30;;;;;;;24.40;100.00;101390.94;5066103;28;20059;-68
2023/09/04 08:34:04;;;;;;;2.90;1.00;;;;;;;24.49;100.00;101391.09;5071089;28;20473;-68
2023/09/04 08:36:31;;;;;;;4.13;1.35;;;;;;;24.10;100.00;101377.47;5070168;28;20425;-69
2023/09/04 08:38:57;;;;;;;7.30;1.52;;;;;;;23.96;100.00;101397.38;5070771;28;20048;-69
2023/09/04 08:41:27;;;;;;;4.53;1.27;;;;;;;23.68;100.00;101403.16;5069336;28;20110;-69
2023/09/04 08:43:55;;;;;;;5.20;1.20;;;;;;;23.99;100.00;101392.63;5065095;28;20535;-68
2023/09/04 08:46:22;;;;;;;2.88;1.05;;;;;;;24.24;100.00;101401.22;5062122;28;20391;-69
2023/09/04 08:48:51;;;;;;;3.08;1.00;;;;;;;24.30;100.00;101398.03;5070819;28;20394;-68
2023/09/04 08:51:18;;;;;;;4.53;1.15;;;;;;;23.94;100.00;101402.88;5069442;28;20409;-69
2023/09/04 08:53:45;;;;;;;4.63;1.45;;;;;;;24.13;100.00;101394.09;5070459;28;20490;-68
2023/09/04 08:56:12;;;;;;;4.25;1.38;;;;;;;24.34;100.00;101396.78;5068493;28;20686;-68
2023/09/04 08:58:40;;;;;;;4.18;1.20;;;;;;;24.69;100.00;101379.53;5069896;28;20045;-68
2023/09/04 09:01:09;;;;;;;4.60;1.10;;;;;;;24.60;100.00;101380.34;5069558;28;20734;-68
2023/09/04 09:03:36;;;;;;;5.25;1.50;;;;;;;24.50;100.00;101374.06;5070560;28;20441;-69
2023/09/04 09:06:03;;;;;;;3.78;1.30;;;;;;;24.32;100.00;101382.69;5069507;28;20055;-69
2023/09/04 09:08:32;;;;;;;6.05;1.60;;;;;;;24.47;100.00;101383.22;5070206;28;20048;-69
2023/09/04 09:11:01;;;;;;;5.28;1.30;;;;;;;24.02;100.00;101378.97;5058026;28;20055;-69
2023/09/04 09:13:27;;;;;;;5.35;1.40;;;;;;;24.50;100.00;101377.56;5059304;28;20053;-69
2023/09/04 09:15:54;;;;;;;3.90;1.20;;;;;;;24.71;100.00;101368.69;5068968;28;20084;-68
2023/09/04 09:18:38;;;;;;;4.45;1.38;;;;;;;24.11;100.00;101385.38;5070846;28;20427;-69
2023/09/04 09:21:33;;;;;;;2.97;1.02;;;;;;;24.27;100.00;101379.56;5072884;28;20053;-68
2023/09/04 09:24:19;;;;;;;4.85;1.23;;;;;;;23.59;100.00;101376.34;5082824;28;20079;-68
2023/09/04 09:26:49;;;;;;;3.90;1.02;;;;;;;24.22;100.00;101376.44;5073804;28;20405;-68
2023/09/04 09:29:18;;;;;;;4.88;1.30;;;;;;;23.81;100.00;101373.59;5064044;28;20044;-69
2023/09/04 09:31:46;;;;;;;4.97;1.40;;;;;;;23.46;100.00;101347.09;5068890;28;20053;-69
2023/09/04 09:34:14;;;;;;;6.47;1.50;;;;;;;23.94;100.00;101367.22;5063511;28;20127;-69
2023/09/04 09:36:41;;;;;;;3.42;1.10;;;;;;;24.64;100.00;101355.84;5073908;28;20465;-69
2023/09/04 09:39:08;;;;;;;3.70;1.20;;;;;;;24.68;100.00;101347.53;5066130;28;20055;-69
2023/09/04 09:41:36;;;;;;;4.22;1.45;;;;;;;24.69;100.00;101355.44;5067016;28;20491;-69
2023/09/04 09:44:03;;;;;;;4.53;1.23;;;;;;;24.33;100.00;101370.16;5064050;28;20048;-69
2023/09/04 09:46:36;;;;;;;3.80;1.23;;;;;;;24.25;100.00;101352.94;5073312;28;20051;-69
2023/09/04 09:49:03;;;;;;;3.28;1.02;;;;;;;24.26;100.00;101365.34;5072805;28;20122;-69
2023/09/04 09:51:32;;;;;;;3.95;1.10;;;;;;;24.34;100.00;101382.56;5072700;28;20049;-69
2023/09/04 09:53:59;;;;;;;2.25;0.90;;;;;;;24.42;100.00;101364.03;5068263;28;20076;-69
2023/09/04 09:56:27;;;;;;;4.05;1.20;;;;;;;24.72;100.00;101373.06;5066378;28;20406;-69
2023/09/04 09:58:56;;;;;;;4.70;1.30;;;;;;;24.35;100.00;101382.44;5052949;28;20439;-69
2023/09/04 10:01:24;;;;;;;4.70;1.20;;;;;;;25.15;100.00;101378.16;5062794;28;20078;-69
2023/09/04 10:03:51;;;;;;;6.13;1.30;;;;;;;25.23;100.00;101355.16;5073275;28;20056;-69
2023/09/04 10:06:34;;;;;;;6.65;1.40;;;;;;;25.61;100.00;101373.16;5072908;28;20051;-68
2023/09/04 10:09:02;;;;;;;;;;;;;;;25.56;100.00;101362.84;5073323;28;20053;-68
2023/09/04 10:11:32;;;;;;;4.13;1.10;;;;;;;25.85;100.00;101356.66;5064596;28;19921;-69
2023/09/04 10:14:10;;;;;;;3.50;1.08;;;;;;;25.14;100.00;101365.75;5067876;28;20048;-69
2023/09/04 10:16:45;;;;;;;4.30;1.38;;;;;;;25.52;100.00;101364.13;5073088;28;20049;-69
2023/09/04 10:19:17;;;;;;;3.25;1.23;;;;;;;25.78;100.00;101363.56;5073519;28;20048;-69
2023/09/04 10:21:52;;;;;;;4.43;1.17;;;;;;;25.60;100.00;101358.06;5072569;28;20048;-69
2023/09/04 10:24:24;;;;;;;4.35;1.30;;;;;;;25.98;100.00;101355.56;5073231;28;20155;-69
2023/09/04 10:27:00;;;;;;;3.55;1.23;;;;;;;25.96;100.00;101353.00;5073731;28;20048;-69
2023/09/04 10:29:31;;;;;;;3.50;1.10;;;;;;;25.80;100.00;101358.06;5061304;28;20071;-69
2023/09/04 10:32:00;;;;;;;7.15;1.55;;;;;;;25.64;100.00;101346.09;5066000;28;20056;-69
2023/09/04 10:34:26;;;;;;;4.47;1.40;;;;;;;25.82;100.00;101351.56;5067887;28;20540;-69
2023/09/04 10:36:53;;;;;;;7.45;1.40;;;;;;;25.75;100.00;101348.59;5069501;28;20045;-69
2023/09/04 10:39:21;;;;;;;6.85;1.17;;;;;;;25.61;100.00;101345.53;5072705;28;20040;-69
2023/09/04 10:41:48;;;;;;;3.58;1.00;;;;;;;26.08;100.00;101345.63;5072163;28;20056;-69
2023/09/04 10:44:51;;;;;;;4.80;1.20;;;;;;;26.21;100.00;101359.59;5071900;28;20049;-69
2023/09/04 10:47:18;;;;;;;4.47;1.30;;;;;;;26.07;100.00;101343.94;5072865;28;20098;-69
2023/09/04 10:49:46;;;;;;;4.57;1.38;;;;;;;25.73;100.00;101339.88;5072616;28;20041;-69
2023/09/04 10:52:13;;;;;;;3.60;1.20;;;;;;;26.26;100.00;101343.91;5071641;28;20051;-68
2023/09/04 10:54:41;;;;;;;2.95;1.08;;;;;;;26.54;100.00;101349.31;5072191;28;20057;-68
2023/09/04 10:57:12;;;;;;;4.55;1.02;;;;;;;26.27;100.00;101339.38;5072353;28;20102;-69
2023/09/04 10:59:54;;;;;;;4.57;1.20;;;;;;;26.86;100.00;101348.06;5072858;28;20055;-69
2023/09/04 11:02:32;;;;;;;3.65;1.05;;;;;;;26.69;100.00;101350.56;5070816;28;20052;-68
2023/09/04 11:05:01;;;;;;;4.05;1.50;;;;;;;26.42;100.00;101339.72;5061867;28;20490;-68
2023/09/04 11:07:29;;;;;;;3.50;1.38;;;;;;;26.71;100.00;101340.50;5069394;28;20371;-68
2023/09/04 11:10:04;;;;;;;5.75;1.50;;;;;;;26.71;100.00;101334.28;5072198;28;20079;-68
2023/09/04 11:12:35;;;;;;;4.05;1.20;;;;;;;27.00;100.00;101330.59;5071410;28;20048;-68
2023/09/04 11:15:10;;;;;;;5.05;1.27;;;;;;;26.86;100.00;101327.44;5072424;28;20049;-68
2023/09/04 11:17:38;;;;;;;4.30;1.27;;;;;;;26.68;100.00;101342.63;5068544;28;20056;-69
2023/09/04 11:20:06;;;;;;;5.20;1.35;;;;;;;26.82;100.00;101341.31;5060888;28;20044;-68